Time;durP1;ratioP1;P1;durP2;ratioP2;P2;SDS_P1;SDS_P2;PMS_P1;PMS_P2;Temp;Humidity;BMP_temperature;BMP_pressure;BME280_temperature;BME280_humidity;BME280_pressure;Samples;Min_cycle;Max_cycle;Signal;HPM_P1;HPM_P2
2021/12/09 00:02:01;;;;;;;19.05;15.60;;;;;;;;;;5059285;28;25280;-57
2021/12/09 00:04:30;;;;;;;20.03;15.43;;;;;;;;;;5056480;28;24431;-57
2021/12/09 00:06:56;;;;;;;19.25;15.50;;;;;;;;;;5052980;28;24983;-57
2021/12/09 00:09:21;;;;;;;20.15;15.93;;;;;;;;;;5049608;28;24500;-57
2021/12/09 00:11:47;;;;;;;18.27;15.40;;;;;;;;;;5049342;28;25149;-57
2021/12/09 00:14:17;;;;;;;19.05;16.40;;;;;;;;;;5057808;28;24518;-57
2021/12/09 00:16:42;;;;;;;19.42;15.70;;;;;;;;;;5049375;28;24496;-57
2021/12/09 00:19:08;;;;;;;19.27;16.00;;;;;;;;;;5050981;28;24415;-57
2021/12/09 00:21:33;;;;;;;18.70;15.00;;;;;;;;;;5056487;28;24435;-57
2021/12/09 00:23:58;;;;;;;19.33;15.75;;;;;;;;;;5037362;28;24403;-57
2021/12/09 00:26:24;;;;;;;18.83;15.20;;;;;;;;;;5048956;28;24466;-57
2021/12/09 00:28:49;;;;;;;18.63;15.20;;;;;;;;;;5058768;28;24840;-57
2021/12/09 00:31:15;;;;;;;19.67;15.40;;;;;;;;;;5054276;28;24469;-57
2021/12/09 00:33:43;;;;;;;18.58;15.20;;;;;;;;;;5050001;28;26432;-57
2021/12/09 00:36:09;;;;;;;19.25;15.55;;;;;;;;;;5037425;28;24407;-57
2021/12/09 00:38:37;;;;;;;18.10;14.80;;;;;;;;;;5052233;28;24475;-57
2021/12/09 00:41:04;;;;;;;20.08;15.40;;;;;;;;;;5059078;28;24470;-57
2021/12/09 00:43:29;;;;;;;19.23;14.93;;;;;;;;;;5042838;28;24541;-57
2021/12/09 00:45:57;;;;;;;17.70;15.37;;;;;;;;;;5056346;28;24632;-57
2021/12/09 00:48:22;;;;;;;19.02;15.60;;;;;;;;;;5058780;28;25086;-57
2021/12/09 00:50:47;;;;;;;18.60;14.80;;;;;;;;;;5058282;28;24564;-57
2021/12/09 00:53:12;;;;;;;18.03;15.33;;;;;;;;;;5045097;28;24419;-57
2021/12/09 00:55:38;;;;;;;20.23;15.50;;;;;;;;;;5047000;28;24430;-57
2021/12/09 00:58:04;;;;;;;18.50;15.33;;;;;;;;;;5038623;28;24773;-57
2021/12/09 01:00:31;;;;;;;18.85;15.68;;;;;;;;;;5056116;28;24411;-57
2021/12/09 01:02:56;;;;;;;19.55;16.00;;;;;;;;;;5058404;28;24850;-57
2021/12/09 01:05:21;;;;;;;19.13;15.40;;;;;;;;;;5062339;28;24411;-57
2021/12/09 01:07:46;;;;;;;19.10;15.55;;;;;;;;;;5048620;28;24482;-57
2021/12/09 01:10:13;;;;;;;20.43;16.97;;;;;;;;;;5047099;28;24410;-57
2021/12/09 01:12:38;;;;;;;24.55;19.00;;;;;;;;;;5052896;28;25188;-57
2021/12/09 01:15:05;;;;;;;26.00;19.47;;;;;;;;;;5059295;28;24418;-57
2021/12/09 01:17:30;;;;;;;25.33;19.10;;;;;;;;;;5062825;28;24488;-57
2021/12/09 01:19:55;;;;;;;29.00;21.20;;;;;;;;;;5057937;28;24970;-57
2021/12/09 01:22:27;;;;;;;29.83;22.03;;;;;;;;;;5051110;28;24530;-57
2021/12/09 01:24:52;;;;;;;27.65;20.83;;;;;;;;;;5052495;28;24426;-57
2021/12/09 01:27:18;;;;;;;32.37;23.20;;;;;;;;;;5046052;28;24780;-57
2021/12/09 01:29:51;;;;;;;33.60;23.97;;;;;;;;;;5052033;28;24427;-57
2021/12/09 01:32:23;;;;;;;28.98;21.65;;;;;;;;;;5048352;28;24790;-57
2021/12/09 01:34:49;;;;;;;29.67;22.00;;;;;;;;;;5054708;28;24461;-58
2021/12/09 01:37:14;;;;;;;29.33;22.30;;;;;;;;;;5059080;28;24434;-57
2021/12/09 01:39:39;;;;;;;30.13;22.77;;;;;;;;;;5045931;28;24935;-57
2021/12/09 01:42:04;;;;;;;32.20;22.90;;;;;;;;;;5064611;28;24414;-57
2021/12/09 01:44:30;;;;;;;30.30;21.83;;;;;;;;;;5054082;28;24422;-57
2021/12/09 01:46:56;;;;;;;33.43;23.67;;;;;;;;;;5054398;28;24419;-57
2021/12/09 01:49:21;;;;;;;28.67;22.40;;;;;;;;;;5045226;28;24422;-57
2021/12/09 01:51:46;;;;;;;33.20;23.58;;;;;;;;;;5061592;28;24505;-57
2021/12/09 01:54:12;;;;;;;32.13;23.60;;;;;;;;;;5055893;28;25024;-57
2021/12/09 01:56:38;;;;;;;33.53;24.60;;;;;;;;;;5046004;28;24821;-57
2021/12/09 01:59:04;;;;;;;31.45;23.45;;;;;;;;;;5045040;28;25051;-57
2021/12/09 02:01:31;;;;;;;31.67;24.17;;;;;;;;;;5059522;28;24456;-57
2021/12/09 02:03:56;;;;;;;34.72;24.83;;;;;;;;;;5062139;28;24422;-57
2021/12/09 02:06:23;;;;;;;34.53;25.50;;;;;;;;;;5051594;28;24407;-57
2021/12/09 02:08:48;;;;;;;34.42;25.13;;;;;;;;;;5061931;28;24468;-57
2021/12/09 02:11:13;;;;;;;32.57;23.47;;;;;;;;;;5059054;28;24429;-57
2021/12/09 02:13:38;;;;;;;34.70;24.20;;;;;;;;;;5044764;28;24450;-57
2021/12/09 02:16:04;;;;;;;35.83;25.93;;;;;;;;;;5060361;28;24799;-56
2021/12/09 02:18:29;;;;;;;35.93;26.57;;;;;;;;;;5062272;28;24773;-56
2021/12/09 02:21:03;;;;;;;35.88;26.42;;;;;;;;;;5061997;28;24415;-57
2021/12/09 02:23:28;;;;;;;36.80;26.40;;;;;;;;;;5045760;28;24523;-57
2021/12/09 02:25:53;;;;;;;35.47;25.52;;;;;;;;;;5053443;28;24423;-57
2021/12/09 02:28:18;;;;;;;34.70;25.55;;;;;;;;;;5061486;28;24517;-57
2021/12/09 02:30:43;;;;;;;37.47;25.90;;;;;;;;;;5064880;28;24419;-57
2021/12/09 02:33:08;;;;;;;40.40;27.67;;;;;;;;;;5057843;28;25024;-57
2021/12/09 02:35:34;;;;;;;36.70;26.17;;;;;;;;;;5056411;28;24442;-57
2021/12/09 02:37:59;;;;;;;39.10;26.83;;;;;;;;;;5053819;28;24442;-57
2021/12/09 02:40:24;;;;;;;38.40;27.30;;;;;;;;;;5062685;28;24414;-57
2021/12/09 02:42:50;;;;;;;37.30;27.58;;;;;;;;;;5063532;28;24403;-57
2021/12/09 02:45:15;;;;;;;39.57;27.57;;;;;;;;;;5057219;28;24544;-57
2021/12/09 02:47:40;;;;;;;35.90;25.77;;;;;;;;;;5060918;28;24413;-57
2021/12/09 02:50:06;;;;;;;39.27;27.60;;;;;;;;;;5056009;28;25056;-57
2021/12/09 02:52:32;;;;;;;38.23;27.73;;;;;;;;;;5060747;28;24464;-57
2021/12/09 02:54:58;;;;;;;41.17;28.00;;;;;;;;;;5059942;28;24988;-57
2021/12/09 02:57:23;;;;;;;37.00;26.67;;;;;;;;;;5064704;28;24532;-57
2021/12/09 02:59:48;;;;;;;36.57;26.67;;;;;;;;;;5058802;28;25015;-57
2021/12/09 03:02:14;;;;;;;36.70;25.73;;;;;;;;;;5060570;28;24400;-57
2021/12/09 03:04:48;;;;;;;37.13;27.07;;;;;;;;;;5058506;28;25041;-58
2021/12/09 03:07:19;;;;;;;34.70;24.60;;;;;;;;;;5047684;28;24430;-58
2021/12/09 03:09:49;;;;;;;37.35;26.52;;;;;;;;;;5053382;28;24418;-57
2021/12/09 03:12:26;;;;;;;38.78;27.60;;;;;;;;;;5047544;28;24434;-57
2021/12/09 03:14:51;;;;;;;39.08;26.98;;;;;;;;;;5055335;28;24414;-57
2021/12/09 03:17:17;;;;;;;39.83;28.23;;;;;;;;;;5050715;28;24978;-57
2021/12/09 03:19:42;;;;;;;38.40;26.37;;;;;;;;;;5063030;28;24903;-58
2021/12/09 03:22:07;;;;;;;38.42;26.63;;;;;;;;;;5059064;28;24419;-57
2021/12/09 03:24:33;;;;;;;38.13;27.57;;;;;;;;;;5063755;28;24882;-57
2021/12/09 03:26:58;;;;;;;37.20;26.60;;;;;;;;;;5047140;28;24451;-58
2021/12/09 03:29:25;;;;;;;37.10;26.33;;;;;;;;;;5046057;28;24422;-58
2021/12/09 03:31:51;;;;;;;41.60;29.05;;;;;;;;;;5045627;28;24502;-58
2021/12/09 03:34:17;;;;;;;39.10;27.60;;;;;;;;;;5048003;28;24450;-58
2021/12/09 03:36:44;;;;;;;35.83;26.02;;;;;;;;;;5048333;28;24435;-58
2021/12/09 03:39:11;;;;;;;34.45;25.33;;;;;;;;;;5055634;28;24502;-59
2021/12/09 03:41:38;;;;;;;35.45;26.35;;;;;;;;;;5046645;28;24411;-58
2021/12/09 03:44:03;;;;;;;36.58;26.52;;;;;;;;;;5049299;28;24417;-58
2021/12/09 03:46:28;;;;;;;38.05;26.48;;;;;;;;;;5051454;28;24514;-58
2021/12/09 03:48:54;;;;;;;40.17;27.85;;;;;;;;;;5053300;28;24773;-58
2021/12/09 03:51:19;;;;;;;36.88;26.50;;;;;;;;;;5054222;28;24415;-58
2021/12/09 03:53:44;;;;;;;34.43;25.60;;;;;;;;;;5059717;28;24468;-58
2021/12/09 03:56:09;;;;;;;36.13;26.13;;;;;;;;;;5053940;28;24898;-58
2021/12/09 03:58:34;;;;;;;36.90;26.25;;;;;;;;;;5059746;28;24406;-58
2021/12/09 04:00:59;;;;;;;35.93;26.43;;;;;;;;;;5045994;28;24534;-58
2021/12/09 04:03:25;;;;;;;37.37;26.13;;;;;;;;;;5057958;28;24415;-58
2021/12/09 04:05:50;;;;;;;34.93;25.60;;;;;;;;;;5057796;28;24784;-58
2021/12/09 04:08:15;;;;;;;35.93;25.80;;;;;;;;;;5058479;28;24772;-58
2021/12/09 04:10:40;;;;;;;36.10;26.70;;;;;;;;;;5052901;28;24886;-58
2021/12/09 04:13:06;;;;;;;35.00;26.17;;;;;;;;;;5058009;28;24547;-58
2021/12/09 04:15:31;;;;;;;34.47;24.70;;;;;;;;;;5056537;28;24968;-58
2021/12/09 04:17:56;;;;;;;31.93;24.90;;;;;;;;;;5057007;28;24484;-58
2021/12/09 04:20:22;;;;;;;37.15;26.23;;;;;;;;;;5052647;28;25022;-58
2021/12/09 04:22:50;;;;;;;31.60;24.57;;;;;;;;;;5058528;28;24441;-58
2021/12/09 04:25:20;;;;;;;35.28;25.33;;;;;;;;;;5061500;28;24506;-58
2021/12/09 04:27:46;;;;;;;33.17;25.10;;;;;;;;;;5054174;28;24461;-58
2021/12/09 04:30:12;;;;;;;28.97;23.60;;;;;;;;;;5050134;28;25178;-58
2021/12/09 04:32:37;;;;;;;34.78;24.95;;;;;;;;;;5059756;28;24547;-58
2021/12/09 04:35:03;;;;;;;32.30;24.80;;;;;;;;;;5049990;28;24461;-59
2021/12/09 04:37:28;;;;;;;34.03;24.52;;;;;;;;;;5062687;28;24951;-59
2021/12/09 04:39:53;;;;;;;36.88;27.90;;;;;;;;;;5057655;28;24510;-58
2021/12/09 04:42:18;;;;;;;36.20;26.75;;;;;;;;;;5054851;28;24496;-58
2021/12/09 04:44:44;;;;;;;32.10;24.90;;;;;;;;;;5041829;28;24505;-58
2021/12/09 04:47:09;;;;;;;32.88;24.98;;;;;;;;;;5060753;28;24406;-58
2021/12/09 04:49:34;;;;;;;33.63;25.40;;;;;;;;;;5062934;28;24418;-58
2021/12/09 04:52:00;;;;;;;32.08;25.30;;;;;;;;;;5046243;28;24792;-59
2021/12/09 04:54:27;;;;;;;32.83;25.60;;;;;;;;;;5054872;28;24418;-58
2021/12/09 04:56:53;;;;;;;34.42;27.25;;;;;;;;;;5057617;28;24434;-59
2021/12/09 04:59:18;;;;;;;29.57;22.80;;;;;;;;;;5061203;28;24681;-59
2021/12/09 05:01:48;;;;;;;28.35;23.33;;;;;;;;;;5058110;28;24414;-59
2021/12/09 05:04:13;;;;;;;34.03;24.23;;;;;;;;;;5057744;28;24989;-60
2021/12/09 05:06:38;;;;;;;30.87;23.57;;;;;;;;;;5057136;28;24433;-59
2021/12/09 05:09:09;;;;;;;28.50;22.70;;;;;;;;;;5057603;28;24419;-59
2021/12/09 05:14:03;;;;;;;30.13;22.60;;;;;;;;;;5059267;28;24421;-59
2021/12/09 05:16:29;;;;;;;28.15;21.05;;;;;;;;;;5052380;28;24431;-59
2021/12/09 05:18:58;;;;;;;27.83;21.70;;;;;;;;;;5056976;28;24756;-59
2021/12/09 05:21:24;;;;;;;29.38;22.73;;;;;;;;;;5057437;28;24433;-59
2021/12/09 05:23:50;;;;;;;31.40;23.92;;;;;;;;;;5052998;28;24473;-59
2021/12/09 05:26:17;;;;;;;31.60;25.60;;;;;;;;;;5057361;28;24582;-58
2021/12/09 05:28:44;;;;;;;29.80;23.87;;;;;;;;;;5057820;28;24522;-60
2021/12/09 05:33:53;;;;;;;27.88;22.25;;;;;;;;;;5037792;28;24450;-60
2021/12/09 05:36:18;;;;;;;27.65;22.77;;;;;;;;;;5057880;28;24427;-60
2021/12/09 05:38:44;;;;;;;29.53;23.60;;;;;;;;;;5055716;28;25652;-60
2021/12/09 05:41:10;;;;;;;29.17;23.30;;;;;;;;;;5051420;28;24545;-60
2021/12/09 05:43:36;;;;;;;27.63;21.50;;;;;;;;;;5056129;28;24422;-59
2021/12/09 05:46:02;;;;;;;30.10;23.63;;;;;;;;;;5056776;28;24515;-58
2021/12/09 05:48:27;;;;;;;30.65;24.00;;;;;;;;;;5058220;28;25303;-60
2021/12/09 05:50:52;;;;;;;29.20;23.60;;;;;;;;;;5055411;28;24399;-59
2021/12/09 05:53:17;;;;;;;29.40;25.60;;;;;;;;;;5050265;28;24584;-60
2021/12/09 05:55:44;;;;;;;29.13;23.03;;;;;;;;;;5055672;28;25028;-60
2021/12/09 05:58:16;;;;;;;30.08;23.77;;;;;;;;;;5057043;28;24409;-60
2021/12/09 06:00:41;;;;;;;26.20;21.00;;;;;;;;;;5057238;28;25073;-60
2021/12/09 06:03:06;;;;;;;32.10;24.23;;;;;;;;;;5050861;28;24514;-60
2021/12/09 06:05:32;;;;;;;28.48;21.40;;;;;;;;;;5053904;28;24423;-60
2021/12/09 06:07:57;;;;;;;29.90;21.90;;;;;;;;;;5058031;28;24422;-60
2021/12/09 06:10:22;;;;;;;27.65;21.50;;;;;;;;;;5057748;28;24407;-60
2021/12/09 06:12:47;;;;;;;27.47;21.87;;;;;;;;;;5049687;28;24429;-60
2021/12/09 06:15:12;;;;;;;27.50;22.10;;;;;;;;;;5048041;28;24843;-60
2021/12/09 06:17:37;;;;;;;28.48;22.00;;;;;;;;;;5057345;28;24505;-60
2021/12/09 06:20:03;;;;;;;30.77;24.10;;;;;;;;;;5064932;28;24975;-60
2021/12/09 06:22:28;;;;;;;32.07;24.33;;;;;;;;;;5059178;28;25001;-60
2021/12/09 06:24:53;;;;;;;29.80;25.00;;;;;;;;;;5051000;28;24407;-60
2021/12/09 06:27:19;;;;;;;32.35;24.13;;;;;;;;;;5054961;28;24422;-60
2021/12/09 06:29:44;;;;;;;29.60;23.53;;;;;;;;;;5050076;28;24856;-58
2021/12/09 06:32:11;;;;;;;27.00;21.48;;;;;;;;;;5056723;28;24426;-61
2021/12/09 06:34:36;;;;;;;30.70;23.40;;;;;;;;;;5060394;28;24980;-59
2021/12/09 06:37:01;;;;;;;26.60;22.40;;;;;;;;;;5055083;28;24477;-59
2021/12/09 06:39:26;;;;;;;27.97;22.10;;;;;;;;;;5043139;28;24494;-59
2021/12/09 06:41:52;;;;;;;26.90;22.27;;;;;;;;;;5059216;28;24436;-59
2021/12/09 06:44:17;;;;;;;27.83;22.90;;;;;;;;;;5059852;28;24438;-59
2021/12/09 06:46:42;;;;;;;27.70;23.27;;;;;;;;;;5050470;28;24642;-59
2021/12/09 06:49:07;;;;;;;27.57;22.40;;;;;;;;;;5045127;28;24414;-59
2021/12/09 06:51:33;;;;;;;31.63;24.50;;;;;;;;;;5052033;28;24422;-59
2021/12/09 06:53:58;;;;;;;31.95;25.20;;;;;;;;;;5054811;28;24971;-58
2021/12/09 06:56:25;;;;;;;29.43;24.10;;;;;;;;;;5054019;28;24995;-59
2021/12/09 06:58:50;;;;;;;28.65;23.73;;;;;;;;;;5058645;28;24473;-58
2021/12/09 07:01:15;;;;;;;29.27;24.23;;;;;;;;;;5059991;28;24886;-60
2021/12/09 07:03:41;;;;;;;29.63;23.17;;;;;;;;;;5052352;28;24406;-60
2021/12/09 07:06:08;;;;;;;30.45;23.00;;;;;;;;;;5051828;28;24438;-60
2021/12/09 07:08:35;;;;;;;27.93;22.10;;;;;;;;;;5057723;28;24422;-60
2021/12/09 07:11:01;;;;;;;30.50;23.08;;;;;;;;;;5049800;28;24415;-60
2021/12/09 07:13:26;;;;;;;28.40;23.50;;;;;;;;;;5055544;28;24450;-60
2021/12/09 07:15:51;;;;;;;30.43;23.20;;;;;;;;;;5060664;28;24431;-60
2021/12/09 07:18:20;;;;;;;27.70;22.13;;;;;;;;;;5061254;28;24506;-60
2021/12/09 07:20:45;;;;;;;29.65;23.80;;;;;;;;;;5054215;28;24419;-59
2021/12/09 07:23:11;;;;;;;31.90;24.77;;;;;;;;;;5059010;28;24419;-60
2021/12/09 07:25:38;;;;;;;33.13;23.88;;;;;;;;;;5060451;28;24418;-60
2021/12/09 07:28:03;;;;;;;30.38;22.90;;;;;;;;;;5054087;28;24422;-60
2021/12/09 07:30:28;;;;;;;29.00;21.83;;;;;;;;;;5053659;28;24415;-60
2021/12/09 07:32:53;;;;;;;31.00;23.97;;;;;;;;;;5059410;28;24442;-58
2021/12/09 07:35:19;;;;;;;29.63;25.73;;;;;;;;;;5060243;28;24425;-59
2021/12/09 07:37:44;;;;;;;29.67;24.90;;;;;;;;;;5058236;28;24456;-59
2021/12/09 07:40:17;;;;;;;27.43;23.00;;;;;;;;;;5058465;28;24868;-58
2021/12/09 07:42:42;;;;;;;32.35;23.90;;;;;;;;;;5057400;28;24476;-59
2021/12/09 07:45:08;;;;;;;35.10;25.70;;;;;;;;;;5055372;28;24858;-59
2021/12/09 07:47:33;;;;;;;29.60;22.08;;;;;;;;;;5060065;28;24414;-59
2021/12/09 07:49:58;;;;;;;29.97;23.60;;;;;;;;;;5054415;28;24425;-59
2021/12/09 07:52:23;;;;;;;28.17;21.92;;;;;;;;;;5057852;28;24484;-59
2021/12/09 07:54:49;;;;;;;33.00;25.25;;;;;;;;;;5057265;28;24537;-59
2021/12/09 07:57:14;;;;;;;30.80;23.95;;;;;;;;;;5058139;28;24523;-59
2021/12/09 07:59:39;;;;;;;34.50;26.57;;;;;;;;;;5059532;28;24795;-58
2021/12/09 08:02:05;;;;;;;33.85;26.73;;;;;;;;;;5053112;28;24467;-58
2021/12/09 08:04:30;;;;;;;34.40;27.35;;;;;;;;;;5059444;28;24455;-59
2021/12/09 08:06:56;;;;;;;34.47;26.80;;;;;;;;;;5057093;28;24659;-59
2021/12/09 08:09:21;;;;;;;30.73;24.40;;;;;;;;;;5059200;28;24421;-59
2021/12/09 08:11:47;;;;;;;34.67;26.55;;;;;;;;;;5047357;28;24429;-59
2021/12/09 08:14:15;;;;;;;35.17;27.35;;;;;;;;;;5051606;28;24887;-59
2021/12/09 08:16:40;;;;;;;38.50;29.67;;;;;;;;;;5055772;28;24504;-59
2021/12/09 08:19:07;;;;;;;34.57;27.50;;;;;;;;;;5058537;28;24977;-59
2021/12/09 08:21:35;;;;;;;35.53;28.58;;;;;;;;;;5056301;28;24434;-58
2021/12/09 08:24:01;;;;;;;36.30;28.52;;;;;;;;;;5053396;28;24568;-59
2021/12/09 08:26:26;;;;;;;39.67;30.38;;;;;;;;;;5053443;28;24506;-59
2021/12/09 08:28:51;;;;;;;39.80;30.73;;;;;;;;;;5052272;28;24850;-58
2021/12/09 08:31:16;;;;;;;39.10;32.40;;;;;;;;;;5054656;28;25453;-59
2021/12/09 08:33:41;;;;;;;35.80;26.53;;;;;;;;;;5052660;28;24798;-59
2021/12/09 08:36:07;;;;;;;31.07;26.23;;;;;;;;;;5052983;28;24427;-59
2021/12/09 08:38:33;;;;;;;30.37;25.27;;;;;;;;;;5058398;28;24847;-59
2021/12/09 08:40:59;;;;;;;39.50;29.77;;;;;;;;;;5059331;28;24529;-58
2021/12/09 08:43:24;;;;;;;35.92;30.25;;;;;;;;;;5054690;28;24403;-59
2021/12/09 08:45:50;;;;;;;33.00;28.20;;;;;;;;;;5059705;28;24583;-58
2021/12/09 08:48:16;;;;;;;39.88;29.88;;;;;;;;;;5061679;28;24429;-58
2021/12/09 08:50:43;;;;;;;36.15;28.63;;;;;;;;;;5056306;28;24415;-58
2021/12/09 08:53:10;;;;;;;38.80;31.23;;;;;;;;;;5058370;28;24772;-57
2021/12/09 08:55:36;;;;;;;39.35;32.30;;;;;;;;;;5059553;28;25039;-59
2021/12/09 08:58:02;;;;;;;42.22;33.80;;;;;;;;;;5057316;28;24741;-59
2021/12/09 09:00:29;;;;;;;43.17;31.45;;;;;;;;;;5053953;28;24426;-60
2021/12/09 09:02:54;;;;;;;40.45;31.17;;;;;;;;;;5061707;28;24430;-59
2021/12/09 09:05:20;;;;;;;40.43;30.97;;;;;;;;;;5060549;28;24431;-59
2021/12/09 09:07:45;;;;;;;40.70;33.97;;;;;;;;;;5059204;28;24793;-59
2021/12/09 09:10:12;;;;;;;37.67;30.60;;;;;;;;;;5055812;28;24822;-59
2021/12/09 09:12:38;;;;;;;34.35;27.85;;;;;;;;;;5057317;28;24411;-59
2021/12/09 09:15:05;;;;;;;38.07;29.83;;;;;;;;;;5054152;28;24519;-58
2021/12/09 09:17:30;;;;;;;39.45;31.27;;;;;;;;;;5055981;28;24435;-58
2021/12/09 09:19:55;;;;;;;36.90;31.45;;;;;;;;;;5044093;28;24473;-59
2021/12/09 09:22:20;;;;;;;33.75;28.05;;;;;;;;;;5035658;28;24414;-58
2021/12/09 09:24:45;;;;;;;34.27;28.10;;;;;;;;;;5050948;28;24406;-58
2021/12/09 09:27:12;;;;;;;35.28;28.15;;;;;;;;;;5051277;28;24416;-58
2021/12/09 09:29:39;;;;;;;37.03;26.90;;;;;;;;;;5037918;28;24507;-59
2021/12/09 09:32:04;;;;;;;33.72;27.13;;;;;;;;;;5051762;28;24433;-58
2021/12/09 09:34:30;;;;;;;35.27;27.87;;;;;;;;;;5047839;28;24435;-58
2021/12/09 09:36:55;;;;;;;35.97;29.53;;;;;;;;;;5042058;28;24454;-58
2021/12/09 09:39:22;;;;;;;33.10;26.83;;;;;;;;;;5038410;28;24408;-58
2021/12/09 09:41:56;;;;;;;36.33;29.63;;;;;;;;;;5037612;28;24475;-58
2021/12/09 09:44:28;;;;;;;34.50;28.85;;;;;;;;;;5046449;28;25021;-59
2021/12/09 09:46:55;;;;;;;40.25;32.22;;;;;;;;;;5056825;28;24427;-58
2021/12/09 09:49:21;;;;;;;32.90;27.80;;;;;;;;;;5050112;28;24427;-59
2021/12/09 09:51:46;;;;;;;37.70;30.83;;;;;;;;;;5060510;28;24428;-58
2021/12/09 09:54:11;;;;;;;43.88;32.35;;;;;;;;;;5061773;28;24521;-58
2021/12/09 09:56:41;;;;;;;37.78;31.17;;;;;;;;;;5046373;28;24484;-59
2021/12/09 09:59:07;;;;;;;41.90;32.27;;;;;;;;;;5056061;28;24860;-59
2021/12/09 10:01:33;;;;;;;38.10;32.27;;;;;;;;;;5055496;28;24423;-59
2021/12/09 10:04:10;;;;;;;34.78;30.20;;;;;;;;;;5057922;28;24976;-58
2021/12/09 10:06:36;;;;;;;32.35;27.92;;;;;;;;;;5048387;28;24428;-58
2021/12/09 10:09:02;;;;;;;38.10;29.75;;;;;;;;;;5048124;28;24480;-58
2021/12/09 10:11:28;;;;;;;34.92;28.40;;;;;;;;;;5060802;28;24418;-58
2021/12/09 10:13:53;;;;;;;35.08;28.83;;;;;;;;;;5054777;28;25241;-59
2021/12/09 10:16:22;;;;;;;33.50;27.33;;;;;;;;;;5050515;28;24485;-58
2021/12/09 10:18:49;;;;;;;36.95;29.13;;;;;;;;;;5052986;28;24418;-59
2021/12/09 10:21:25;;;;;;;31.37;26.07;;;;;;;;;;5058435;28;24469;-59
2021/12/09 10:23:58;;;;;;;31.13;26.17;;;;;;;;;;5053695;28;24411;-58
2021/12/09 10:26:23;;;;;;;33.33;26.35;;;;;;;;;;5052051;28;25087;-58
2021/12/09 10:29:02;;;;;;;32.87;27.00;;;;;;;;;;5055845;28;24414;-58
2021/12/09 10:31:28;;;;;;;28.58;24.60;;;;;;;;;;5061357;28;24504;-59
2021/12/09 10:33:59;;;;;;;32.65;25.88;;;;;;;;;;5059365;28;24492;-58
2021/12/09 10:36:43;;;;;;;36.13;29.00;;;;;;;;;;5059461;28;24419;-59
2021/12/09 10:39:25;;;;;;;32.67;26.67;;;;;;;;;;5047173;28;24794;-59
2021/12/09 10:41:51;;;;;;;33.83;28.47;;;;;;;;;;5059214;28;24433;-58
2021/12/09 10:44:16;;;;;;;31.90;26.13;;;;;;;;;;5057093;28;24782;-58
2021/12/09 10:46:48;;;;;;;37.93;28.77;;;;;;;;;;5060223;28;24446;-58
2021/12/09 10:49:14;;;;;;;31.15;26.50;;;;;;;;;;5062300;28;24415;-59
2021/12/09 10:51:45;;;;;;;32.17;27.67;;;;;;;;;;5062185;28;25078;-58
2021/12/09 10:54:10;;;;;;;32.30;26.20;;;;;;;;;;5059292;28;24407;-59
2021/12/09 10:56:35;;;;;;;32.42;26.55;;;;;;;;;;5055463;28;24434;-58
2021/12/09 10:59:02;;;;;;;38.17;32.00;;;;;;;;;;5059508;28;24472;-58
2021/12/09 11:01:27;;;;;;;35.35;28.73;;;;;;;;;;5063048;28;24479;-58
2021/12/09 11:03:54;;;;;;;38.33;30.43;;;;;;;;;;5062201;28;24395;-58
2021/12/09 11:06:28;;;;;;;33.20;27.75;;;;;;;;;;5059447;28;24402;-58
2021/12/09 11:08:54;;;;;;;34.70;30.90;;;;;;;;;;5058359;28;24509;-58
2021/12/09 11:11:25;;;;;;;30.67;25.42;;;;;;;;;;5063904;28;24386;-58
2021/12/09 11:13:53;;;;;;;32.92;25.85;;;;;;;;;;5061937;28;24777;-60
2021/12/09 11:16:32;;;;;;;31.47;25.70;;;;;;;;;;5063878;28;24422;-58
2021/12/09 11:19:07;;;;;;;29.05;23.98;;;;;;;;;;5058581;28;24391;-58
2021/12/09 11:21:36;;;;;;;32.15;26.17;;;;;;;;;;5057295;28;24476;-57
2021/12/09 11:24:05;;;;;;;32.58;26.10;;;;;;;;;;5052672;28;24454;-58
2021/12/09 11:26:56;;;;;;;32.03;26.30;;;;;;;;;;5061833;28;24403;-57
2021/12/09 11:29:21;;;;;;;31.77;24.92;;;;;;;;;;5062192;28;24492;-60
2021/12/09 11:31:54;;;;;;;32.78;27.02;;;;;;;;;;5057206;28;24534;-60
2021/12/09 11:34:26;;;;;;;31.95;26.27;;;;;;;;;;5058887;28;24466;-60
2021/12/09 11:36:56;;;;;;;32.20;26.60;;;;;;;;;;5062593;28;24418;-60
2021/12/09 11:39:29;;;;;;;31.45;26.48;;;;;;;;;;5062604;28;24395;-60
2021/12/09 11:42:03;;;;;;;30.90;26.55;;;;;;;;;;5050629;28;24529;-60
2021/12/09 11:44:28;;;;;;;29.08;24.60;;;;;;;;;;5055511;28;24419;-60
2021/12/09 11:46:54;;;;;;;28.50;23.57;;;;;;;;;;5062757;28;24460;-60
2021/12/09 11:49:19;;;;;;;31.33;24.93;;;;;;;;;;5058387;28;24847;-60
2021/12/09 11:51:44;;;;;;;33.30;28.70;;;;;;;;;;5050530;28;24510;-60
2021/12/09 11:54:10;;;;;;;30.93;25.80;;;;;;;;;;5059977;28;25435;-60
2021/12/09 11:56:44;;;;;;;31.10;26.00;;;;;;;;;;5059831;28;24530;-60
2021/12/09 12:13:34;;;;;;;33.40;27.15;;;;;;;;;;5057188;28;24834;-58
2021/12/09 12:16:20;;;;;;;35.75;30.30;;;;;;;;;;5052368;28;24980;-58
2021/12/09 12:19:01;;;;;;;37.00;31.08;;;;;;;;;;5059238;28;24993;-58
2021/12/09 12:24:18;;;;;;;37.53;29.90;;;;;;;;;;5050590;28;24737;-58
2021/12/09 12:29:47;;;;;;;32.45;27.42;;;;;;;;;;5054769;28;24456;-58
2021/12/09 12:40:15;;;;;;;29.33;25.40;;;;;;;;;;5053947;28;25035;-58
2021/12/09 12:42:52;;;;;;;30.20;26.00;;;;;;;;;;5050631;28;25132;-58
2021/12/09 12:45:47;;;;;;;31.58;26.13;;;;;;;;;;5058461;28;24419;-59
2021/12/09 12:51:19;;;;;;;30.58;26.88;;;;;;;;;;5052773;28;25070;-59
2021/12/09 12:53:49;;;;;;;33.70;26.73;;;;;;;;;;5051510;28;24488;-59
2021/12/09 12:56:14;;;;;;;33.90;27.38;;;;;;;;;;5056740;28;25030;-59
2021/12/09 12:58:59;;;;;;;34.87;26.90;;;;;;;;;;5039153;28;24395;-59
2021/12/09 13:01:25;;;;;;;31.02;27.05;;;;;;;;;;5053058;28;24426;-59
2021/12/09 13:03:54;;;;;;;33.87;27.70;;;;;;;;;;5053911;28;24423;-59
2021/12/09 13:06:41;;;;;;;32.80;26.83;;;;;;;;;;5058322;28;24456;-59
2021/12/09 13:09:27;;;;;;;32.53;26.98;;;;;;;;;;5057021;28;24407;-59
2021/12/09 13:11:58;;;;;;;31.88;27.73;;;;;;;;;;5057605;28;25006;-58
2021/12/09 13:14:29;;;;;;;32.13;26.35;;;;;;;;;;5050366;28;24525;-59
2021/12/09 13:17:31;;;;;;;31.67;26.55;;;;;;;;;;5058243;28;24450;-59
2021/12/09 13:19:59;;;;;;;31.35;26.60;;;;;;;;;;5050993;28;24488;-59
2021/12/09 13:22:31;;;;;;;32.22;28.67;;;;;;;;;;5050871;28;24423;-59
2021/12/09 13:25:12;;;;;;;31.27;26.33;;;;;;;;;;5057232;28;24511;-58
2021/12/09 13:27:50;;;;;;;33.30;27.67;;;;;;;;;;5044080;28;25195;-58
2021/12/09 13:45:48;;;;;;;33.30;27.10;;;;;;;;;;5059791;28;24493;-58
2021/12/09 13:45:54;;;;;;;34.45;27.98;;;;;;;;;;5062953;28;24958;-58
2021/12/09 13:55:07;;;;;;;34.50;27.50;;;;;;;;;;5060645;28;24464;-59
2021/12/09 13:57:35;;;;;;;34.10;28.42;;;;;;;;;;5060338;28;24741;-59
2021/12/09 14:00:01;;;;;;;32.50;26.67;;;;;;;;;;5043549;28;24605;-59
2021/12/09 14:02:27;;;;;;;36.10;30.05;;;;;;;;;;5046154;28;24419;-59
2021/12/09 14:04:54;;;;;;;31.70;28.17;;;;;;;;;;5064225;28;24502;-59
2021/12/09 14:07:31;;;;;;;32.97;27.70;;;;;;;;;;5061978;28;24427;-59
2021/12/09 14:10:06;;;;;;;35.80;29.35;;;;;;;;;;5060869;28;24427;-60
2021/12/09 14:12:41;;;;;;;37.25;29.77;;;;;;;;;;5056990;28;24568;-60
2021/12/09 14:15:10;;;;;;;32.38;27.30;;;;;;;;;;5062219;28;24828;-60
2021/12/09 14:17:39;;;;;;;35.35;28.80;;;;;;;;;;5064524;28;25033;-57
2021/12/09 14:20:06;;;;;;;36.70;29.25;;;;;;;;;;5045731;28;24481;-60
2021/12/09 14:22:36;;;;;;;32.75;27.35;;;;;;;;;;5056209;28;24446;-58
2021/12/09 14:25:06;;;;;;;36.15;29.98;;;;;;;;;;5057835;28;25051;-58
2021/12/09 14:27:31;;;;;;;33.75;29.13;;;;;;;;;;5057645;28;25052;-59
2021/12/09 14:29:58;;;;;;;30.80;26.90;;;;;;;;;;5056245;28;24517;-58
2021/12/09 14:32:24;;;;;;;33.60;28.10;;;;;;;;;;5059958;28;24451;-57
2021/12/09 14:34:51;;;;;;;35.60;27.08;;;;;;;;;;5061744;28;24572;-58
2021/12/09 14:37:17;;;;;;;31.73;27.73;;;;;;;;;;5055983;28;24419;-58
2021/12/09 14:39:43;;;;;;;34.53;28.60;;;;;;;;;;5051086;28;24508;-58
2021/12/09 14:42:19;;;;;;;33.28;28.52;;;;;;;;;;5035129;28;24793;-58
2021/12/09 14:44:57;;;;;;;38.13;28.10;;;;;;;;;;5059384;28;24399;-58
2021/12/09 14:47:23;;;;;;;34.90;28.90;;;;;;;;;;5053041;28;24887;-59
2021/12/09 14:49:50;;;;;;;33.27;28.17;;;;;;;;;;5046343;28;24415;-58
2021/12/09 14:52:30;;;;;;;36.42;29.10;;;;;;;;;;5059581;28;24502;-58
2021/12/09 14:55:14;;;;;;;43.40;30.40;;;;;;;;;;5056398;28;24466;-58
2021/12/09 14:57:58;;;;;;;39.17;30.57;;;;;;;;;;5046564;28;24888;-58
2021/12/09 15:00:35;;;;;;;42.65;30.65;;;;;;;;;;5050903;28;24505;-63
2021/12/09 15:03:02;;;;;;;41.80;29.30;;;;;;;;;;5055253;28;24518;-60
2021/12/09 15:05:29;;;;;;;40.40;27.33;;;;;;;;;;5060243;28;24387;-58
2021/12/09 15:08:04;;;;;;;41.40;29.13;;;;;;;;;;5051761;28;24430;-58
2021/12/09 15:10:31;;;;;;;37.75;25.85;;;;;;;;;;5047888;28;24429;-58
2021/12/09 15:13:00;;;;;;;40.42;26.83;;;;;;;;;;5057607;28;24431;-58
2021/12/09 15:15:27;;;;;;;43.30;27.65;;;;;;;;;;5056880;28;24437;-58